sensor_id;sensor_type;location;lat;lon;timestamp;P1;durP1;ratioP1;P2;durP2;ratioP2
55328;SDS011;41205;44.264;19.884;2022-12-07T00:03:39;676.58;;;216.07;;
55328;SDS011;41205;44.264;19.884;2022-12-07T00:06:07;714.25;;;238.30;;
55328;SDS011;41205;44.264;19.884;2022-12-07T00:08:34;772.22;;;245.90;;
55328;SDS011;41205;44.264;19.884;2022-12-07T00:11:04;875.20;;;285.13;;
55328;SDS011;41205;44.264;19.884;2022-12-07T00:13:31;683.53;;;225.80;;
55328;SDS011;41205;44.264;19.884;2022-12-07T00:16:01;796.58;;;229.52;;
55328;SDS011;41205;44.264;19.884;2022-12-07T00:18:28;728.28;;;221.73;;
55328;SDS011;41205;44.264;19.884;2022-12-07T00:20:58;415.73;;;155.20;;
55328;SDS011;41205;44.264;19.884;2022-12-07T00:23:26;533.55;;;167.43;;
55328;SDS011;41205;44.264;19.884;2022-12-07T00:25:51;512.40;;;184.60;;
55328;SDS011;41205;44.264;19.884;2022-12-07T00:28:17;586.65;;;187.93;;
55328;SDS011;41205;44.264;19.884;2022-12-07T00:30:43;652.78;;;198.82;;
55328;SDS011;41205;44.264;19.884;2022-12-07T00:33:08;571.63;;;178.15;;
55328;SDS011;41205;44.264;19.884;2022-12-07T00:35:34;786.35;;;250.32;;
55328;SDS011;41205;44.264;19.884;2022-12-07T00:38:00;736.80;;;218.43;;
55328;SDS011;41205;44.264;19.884;2022-12-07T00:40:25;747.47;;;206.07;;
55328;SDS011;41205;44.264;19.884;2022-12-07T00:42:51;520.63;;;164.35;;
55328;SDS011;41205;44.264;19.884;2022-12-07T00:45:17;546.70;;;181.07;;
55328;SDS011;41205;44.264;19.884;2022-12-07T00:47:42;677.45;;;210.02;;
55328;SDS011;41205;44.264;19.884;2022-12-07T00:50:08;667.08;;;206.93;;
55328;SDS011;41205;44.264;19.884;2022-12-07T00:52:34;671.65;;;190.77;;
55328;SDS011;41205;44.264;19.884;2022-12-07T00:54:59;635.90;;;179.80;;
55328;SDS011;41205;44.264;19.884;2022-12-07T00:57:25;506.83;;;152.48;;
55328;SDS011;41205;44.264;19.884;2022-12-07T00:59:51;557.97;;;160.35;;
55328;SDS011;41205;44.264;19.884;2022-12-07T01:02:20;331.70;;;115.05;;
55328;SDS011;41205;44.264;19.884;2022-12-07T01:04:46;510.77;;;155.73;;
55328;SDS011;41205;44.264;19.884;2022-12-07T01:07:12;275.85;;;96.28;;
55328;SDS011;41205;44.264;19.884;2022-12-07T01:09:37;475.67;;;139.77;;
55328;SDS011;41205;44.264;19.884;2022-12-07T01:12:03;344.30;;;118.68;;
55328;SDS011;41205;44.264;19.884;2022-12-07T01:14:29;552.10;;;154.88;;
55328;SDS011;41205;44.264;19.884;2022-12-07T01:16:55;408.17;;;117.38;;
55328;SDS011;41205;44.264;19.884;2022-12-07T01:19:20;434.52;;;130.30;;
55328;SDS011;41205;44.264;19.884;2022-12-07T01:21:46;478.48;;;133.02;;
55328;SDS011;41205;44.264;19.884;2022-12-07T01:24:12;489.75;;;139.60;;
55328;SDS011;41205;44.264;19.884;2022-12-07T01:26:37;229.90;;;92.40;;
55328;SDS011;41205;44.264;19.884;2022-12-07T01:29:03;624.35;;;169.30;;
55328;SDS011;41205;44.264;19.884;2022-12-07T01:31:29;445.33;;;128.40;;
55328;SDS011;41205;44.264;19.884;2022-12-07T01:33:57;491.23;;;138.40;;
55328;SDS011;41205;44.264;19.884;2022-12-07T01:36:24;713.63;;;185.40;;
55328;SDS011;41205;44.264;19.884;2022-12-07T01:38:56;456.85;;;135.50;;
55328;SDS011;41205;44.264;19.884;2022-12-07T01:41:25;672.15;;;231.88;;
55328;SDS011;41205;44.264;19.884;2022-12-07T01:46:51;586.50;;;171.80;;
55328;SDS011;41205;44.264;19.884;2022-12-07T01:49:33;481.75;;;132.70;;
55328;SDS011;41205;44.264;19.884;2022-12-07T01:54:39;486.08;;;148.40;;
55328;SDS011;41205;44.264;19.884;2022-12-07T01:57:06;551.75;;;157.60;;
55328;SDS011;41205;44.264;19.884;2022-12-07T01:59:33;665.85;;;198.82;;
55328;SDS011;41205;44.264;19.884;2022-12-07T02:02:00;550.97;;;163.43;;
55328;SDS011;41205;44.264;19.884;2022-12-07T02:04:30;586.45;;;157.50;;
55328;SDS011;41205;44.264;19.884;2022-12-07T02:06:56;489.98;;;150.25;;
55328;SDS011;41205;44.264;19.884;2022-12-07T02:09:23;603.15;;;163.43;;
55328;SDS011;41205;44.264;19.884;2022-12-07T02:11:48;625.95;;;182.93;;
55328;SDS011;41205;44.264;19.884;2022-12-07T02:14:15;573.63;;;169.05;;
55328;SDS011;41205;44.264;19.884;2022-12-07T02:22:23;539.13;;;157.20;;
55328;SDS011;41205;44.264;19.884;2022-12-07T02:28:07;480.33;;;153.68;;
55328;SDS011;41205;44.264;19.884;2022-12-07T02:30:35;480.85;;;162.32;;
55328;SDS011;41205;44.264;19.884;2022-12-07T02:33:13;481.33;;;169.85;;
55328;SDS011;41205;44.264;19.884;2022-12-07T02:36:08;650.88;;;188.02;;
55328;SDS011;41205;44.264;19.884;2022-12-07T02:38:40;614.25;;;182.80;;
55328;SDS011;41205;44.264;19.884;2022-12-07T02:43:57;488.73;;;154.15;;
55328;SDS011;41205;44.264;19.884;2022-12-07T02:46:48;536.38;;;174.40;;
55328;SDS011;41205;44.264;19.884;2022-12-07T02:49:18;615.05;;;169.15;;
55328;SDS011;41205;44.264;19.884;2022-12-07T02:51:46;545.38;;;167.05;;
55328;SDS011;41205;44.264;19.884;2022-12-07T02:54:13;367.38;;;117.38;;
55328;SDS011;41205;44.264;19.884;2022-12-07T03:02:24;520.40;;;152.75;;
55328;SDS011;41205;44.264;19.884;2022-12-07T03:05:21;485.35;;;154.73;;
55328;SDS011;41205;44.264;19.884;2022-12-07T03:16:58;569.47;;;171.50;;
55328;SDS011;41205;44.264;19.884;2022-12-07T03:19:29;548.33;;;153.77;;
55328;SDS011;41205;44.264;19.884;2022-12-07T03:21:59;471.70;;;126.35;;
55328;SDS011;41205;44.264;19.884;2022-12-07T03:24:29;534.22;;;152.07;;
55328;SDS011;41205;44.264;19.884;2022-12-07T03:27:04;450.92;;;134.93;;
55328;SDS011;41205;44.264;19.884;2022-12-07T03:29:40;564.15;;;158.00;;
55328;SDS011;41205;44.264;19.884;2022-12-07T03:32:15;439.65;;;130.25;;
55328;SDS011;41205;44.264;19.884;2022-12-07T03:35:17;466.48;;;136.45;;
55328;SDS011;41205;44.264;19.884;2022-12-07T03:37:46;509.85;;;173.80;;
55328;SDS011;41205;44.264;19.884;2022-12-07T03:40:30;496.17;;;166.43;;
55328;SDS011;41205;44.264;19.884;2022-12-07T03:43:05;372.80;;;118.55;;
55328;SDS011;41205;44.264;19.884;2022-12-07T03:45:34;410.70;;;127.63;;
55328;SDS011;41205;44.264;19.884;2022-12-07T03:48:19;489.88;;;150.15;;
55328;SDS011;41205;44.264;19.884;2022-12-07T03:53:46;505.13;;;147.27;;
55328;SDS011;41205;44.264;19.884;2022-12-07T03:56:18;585.22;;;178.07;;
55328;SDS011;41205;44.264;19.884;2022-12-07T03:58:45;427.30;;;134.15;;
55328;SDS011;41205;44.264;19.884;2022-12-07T04:01:11;566.80;;;162.23;;
55328;SDS011;41205;44.264;19.884;2022-12-07T04:03:37;645.97;;;216.80;;
55328;SDS011;41205;44.264;19.884;2022-12-07T04:06:03;509.63;;;140.35;;
55328;SDS011;41205;44.264;19.884;2022-12-07T04:08:29;426.35;;;138.68;;
55328;SDS011;41205;44.264;19.884;2022-12-07T04:10:54;538.63;;;186.90;;
55328;SDS011;41205;44.264;19.884;2022-12-07T04:13:20;467.92;;;145.25;;
55328;SDS011;41205;44.264;19.884;2022-12-07T04:15:46;422.02;;;126.60;;
55328;SDS011;41205;44.264;19.884;2022-12-07T04:18:11;594.80;;;162.52;;
55328;SDS011;41205;44.264;19.884;2022-12-07T04:20:37;505.88;;;155.82;;
55328;SDS011;41205;44.264;19.884;2022-12-07T04:23:03;536.83;;;155.18;;
55328;SDS011;41205;44.264;19.884;2022-12-07T04:25:28;573.95;;;153.80;;
55328;SDS011;41205;44.264;19.884;2022-12-07T04:27:54;495.13;;;144.25;;
55328;SDS011;41205;44.264;19.884;2022-12-07T04:30:20;479.13;;;145.20;;
55328;SDS011;41205;44.264;19.884;2022-12-07T04:32:45;468.75;;;134.15;;
55328;SDS011;41205;44.264;19.884;2022-12-07T04:35:11;597.13;;;189.40;;
55328;SDS011;41205;44.264;19.884;2022-12-07T04:37:37;564.22;;;164.02;;
55328;SDS011;41205;44.264;19.884;2022-12-07T04:40:06;492.95;;;151.40;;
55328;SDS011;41205;44.264;19.884;2022-12-07T04:42:35;422.48;;;130.82;;
55328;SDS011;41205;44.264;19.884;2022-12-07T04:45:02;379.42;;;119.88;;
55328;SDS011;41205;44.264;19.884;2022-12-07T04:47:28;457.48;;;131.88;;
55328;SDS011;41205;44.264;19.884;2022-12-07T04:49:54;478.17;;;152.35;;
55328;SDS011;41205;44.264;19.884;2022-12-07T04:52:20;842.45;;;313.65;;
55328;SDS011;41205;44.264;19.884;2022-12-07T04:54:45;458.23;;;152.73;;
55328;SDS011;41205;44.264;19.884;2022-12-07T04:57:11;294.45;;;132.80;;
55328;SDS011;41205;44.264;19.884;2022-12-07T04:59:37;430.48;;;153.02;;
55328;SDS011;41205;44.264;19.884;2022-12-07T05:02:02;457.85;;;149.45;;
55328;SDS011;41205;44.264;19.884;2022-12-07T05:04:28;280.05;;;106.85;;
55328;SDS011;41205;44.264;19.884;2022-12-07T05:06:54;403.92;;;130.73;;
55328;SDS011;41205;44.264;19.884;2022-12-07T05:09:19;480.30;;;160.38;;
55328;SDS011;41205;44.264;19.884;2022-12-07T05:11:45;254.38;;;110.07;;
55328;SDS011;41205;44.264;19.884;2022-12-07T05:14:16;462.50;;;157.05;;
55328;SDS011;41205;44.264;19.884;2022-12-07T05:16:44;578.03;;;204.32;;
55328;SDS011;41205;44.264;19.884;2022-12-07T05:19:11;543.67;;;181.15;;
55328;SDS011;41205;44.264;19.884;2022-12-07T05:21:37;386.42;;;138.43;;
55328;SDS011;41205;44.264;19.884;2022-12-07T05:24:04;361.85;;;125.97;;
55328;SDS011;41205;44.264;19.884;2022-12-07T05:26:30;480.10;;;152.82;;
55328;SDS011;41205;44.264;19.884;2022-12-07T05:28:56;458.08;;;144.73;;
55328;SDS011;41205;44.264;19.884;2022-12-07T05:31:23;428.38;;;124.57;;
55328;SDS011;41205;44.264;19.884;2022-12-07T05:33:50;197.70;;;83.60;;
55328;SDS011;41205;44.264;19.884;2022-12-07T05:36:16;403.70;;;133.85;;
55328;SDS011;41205;44.264;19.884;2022-12-07T05:38:42;408.63;;;137.82;;
55328;SDS011;41205;44.264;19.884;2022-12-07T05:41:08;414.95;;;149.70;;
55328;SDS011;41205;44.264;19.884;2022-12-07T05:43:56;335.25;;;131.35;;
55328;SDS011;41205;44.264;19.884;2022-12-07T05:46:22;496.40;;;176.52;;
55328;SDS011;41205;44.264;19.884;2022-12-07T05:48:48;451.48;;;148.93;;
55328;SDS011;41205;44.264;19.884;2022-12-07T05:51:14;340.02;;;128.18;;
55328;SDS011;41205;44.264;19.884;2022-12-07T05:53:39;337.23;;;117.13;;
55328;SDS011;41205;44.264;19.884;2022-12-07T05:56:05;488.98;;;161.95;;
55328;SDS011;41205;44.264;19.884;2022-12-07T05:58:31;359.55;;;126.65;;
55328;SDS011;41205;44.264;19.884;2022-12-07T06:01:15;252.40;;;110.00;;
55328;SDS011;41205;44.264;19.884;2022-12-07T06:03:41;340.10;;;128.93;;
55328;SDS011;41205;44.264;19.884;2022-12-07T06:06:07;214.68;;;95.20;;
55328;SDS011;41205;44.264;19.884;2022-12-07T06:08:32;492.15;;;160.32;;
55328;SDS011;41205;44.264;19.884;2022-12-07T06:10:58;172.60;;;77.45;;
55328;SDS011;41205;44.264;19.884;2022-12-07T06:13:47;284.77;;;107.65;;
55328;SDS011;41205;44.264;19.884;2022-12-07T06:16:12;266.02;;;106.78;;
55328;SDS011;41205;44.264;19.884;2022-12-07T06:18:38;465.33;;;176.40;;
55328;SDS011;41205;44.264;19.884;2022-12-07T06:21:04;256.00;;;107.60;;
55328;SDS011;41205;44.264;19.884;2022-12-07T06:23:30;363.08;;;132.98;;
55328;SDS011;41205;44.264;19.884;2022-12-07T06:25:55;232.02;;;96.10;;
55328;SDS011;41205;44.264;19.884;2022-12-07T06:28:21;301.35;;;102.97;;
55328;SDS011;41205;44.264;19.884;2022-12-07T06:30:46;195.27;;;87.38;;
55328;SDS011;41205;44.264;19.884;2022-12-07T06:33:12;193.48;;;95.75;;
55328;SDS011;41205;44.264;19.884;2022-12-07T06:35:38;219.77;;;104.10;;
55328;SDS011;41205;44.264;19.884;2022-12-07T06:38:03;303.05;;;123.05;;
55328;SDS011;41205;44.264;19.884;2022-12-07T06:40:29;173.00;;;81.38;;
55328;SDS011;41205;44.264;19.884;2022-12-07T06:42:55;252.13;;;114.95;;
55328;SDS011;41205;44.264;19.884;2022-12-07T06:45:20;484.23;;;195.02;;
55328;SDS011;41205;44.264;19.884;2022-12-07T06:47:46;227.18;;;125.82;;
55328;SDS011;41205;44.264;19.884;2022-12-07T06:50:12;399.77;;;153.70;;
55328;SDS011;41205;44.264;19.884;2022-12-07T06:52:37;191.13;;;100.03;;
55328;SDS011;41205;44.264;19.884;2022-12-07T06:55:03;208.98;;;104.00;;
55328;SDS011;41205;44.264;19.884;2022-12-07T06:57:29;254.93;;;141.10;;
55328;SDS011;41205;44.264;19.884;2022-12-07T06:59:55;207.25;;;110.25;;
55328;SDS011;41205;44.264;19.884;2022-12-07T07:02:20;110.47;;;65.95;;
55328;SDS011;41205;44.264;19.884;2022-12-07T07:04:46;145.70;;;78.30;;
55328;SDS011;41205;44.264;19.884;2022-12-07T07:07:12;212.57;;;136.13;;
55328;SDS011;41205;44.264;19.884;2022-12-07T07:09:37;148.52;;;85.90;;
55328;SDS011;41205;44.264;19.884;2022-12-07T07:12:03;138.63;;;75.43;;
55328;SDS011;41205;44.264;19.884;2022-12-07T07:14:29;158.10;;;87.30;;
55328;SDS011;41205;44.264;19.884;2022-12-07T07:16:54;158.98;;;83.63;;
55328;SDS011;41205;44.264;19.884;2022-12-07T07:19:20;162.05;;;84.97;;
55328;SDS011;41205;44.264;19.884;2022-12-07T07:21:46;193.20;;;109.15;;
55328;SDS011;41205;44.264;19.884;2022-12-07T07:24:11;440.50;;;273.75;;
55328;SDS011;41205;44.264;19.884;2022-12-07T07:26:37;116.38;;;71.40;;
55328;SDS011;41205;44.264;19.884;2022-12-07T07:29:03;195.88;;;115.00;;
55328;SDS011;41205;44.264;19.884;2022-12-07T07:31:28;162.75;;;98.18;;
55328;SDS011;41205;44.264;19.884;2022-12-07T07:33:54;170.68;;;98.10;;
55328;SDS011;41205;44.264;19.884;2022-12-07T07:36:20;142.27;;;99.97;;
55328;SDS011;41205;44.264;19.884;2022-12-07T07:38:45;136.38;;;79.85;;
55328;SDS011;41205;44.264;19.884;2022-12-07T07:41:11;115.80;;;63.38;;
55328;SDS011;41205;44.264;19.884;2022-12-07T07:43:37;148.55;;;93.18;;
55328;SDS011;41205;44.264;19.884;2022-12-07T07:46:02;116.82;;;71.72;;
55328;SDS011;41205;44.264;19.884;2022-12-07T07:48:28;176.35;;;95.97;;
55328;SDS011;41205;44.264;19.884;2022-12-07T07:50:54;137.50;;;71.18;;
55328;SDS011;41205;44.264;19.884;2022-12-07T07:53:20;133.55;;;74.00;;
55328;SDS011;41205;44.264;19.884;2022-12-07T07:55:52;180.07;;;115.68;;
55328;SDS011;41205;44.264;19.884;2022-12-07T07:58:18;133.02;;;78.38;;
55328;SDS011;41205;44.264;19.884;2022-12-07T08:00:44;184.82;;;112.03;;
55328;SDS011;41205;44.264;19.884;2022-12-07T08:03:10;195.32;;;109.68;;
55328;SDS011;41205;44.264;19.884;2022-12-07T08:05:36;165.27;;;109.95;;
55328;SDS011;41205;44.264;19.884;2022-12-07T08:08:02;174.57;;;108.82;;
55328;SDS011;41205;44.264;19.884;2022-12-07T08:10:28;196.00;;;118.93;;
55328;SDS011;41205;44.264;19.884;2022-12-07T08:12:54;188.63;;;118.13;;
55328;SDS011;41205;44.264;19.884;2022-12-07T08:15:38;149.10;;;86.85;;
55328;SDS011;41205;44.264;19.884;2022-12-07T08:18:06;169.05;;;98.68;;
55328;SDS011;41205;44.264;19.884;2022-12-07T08:20:33;151.90;;;93.82;;
55328;SDS011;41205;44.264;19.884;2022-12-07T08:22:59;97.50;;;62.72;;
55328;SDS011;41205;44.264;19.884;2022-12-07T08:25:26;98.72;;;59.97;;
55328;SDS011;41205;44.264;19.884;2022-12-07T08:27:52;107.18;;;66.15;;
55328;SDS011;41205;44.264;19.884;2022-12-07T08:30:18;111.82;;;63.10;;
55328;SDS011;41205;44.264;19.884;2022-12-07T08:32:45;118.03;;;73.93;;
55328;SDS011;41205;44.264;19.884;2022-12-07T08:35:11;110.40;;;65.43;;
55328;SDS011;41205;44.264;19.884;2022-12-07T08:37:38;95.10;;;62.00;;
55328;SDS011;41205;44.264;19.884;2022-12-07T08:40:04;87.70;;;52.72;;
55328;SDS011;41205;44.264;19.884;2022-12-07T08:42:31;95.32;;;52.80;;
55328;SDS011;41205;44.264;19.884;2022-12-07T08:45:06;89.13;;;48.65;;
55328;SDS011;41205;44.264;19.884;2022-12-07T08:47:37;87.63;;;47.30;;
55328;SDS011;41205;44.264;19.884;2022-12-07T08:50:06;85.38;;;47.28;;
55328;SDS011;41205;44.264;19.884;2022-12-07T08:52:34;66.97;;;38.13;;
55328;SDS011;41205;44.264;19.884;2022-12-07T08:55:01;76.30;;;42.78;;
55328;SDS011;41205;44.264;19.884;2022-12-07T08:57:28;68.00;;;39.10;;
55328;SDS011;41205;44.264;19.884;2022-12-07T08:59:55;60.92;;;34.03;;
55328;SDS011;41205;44.264;19.884;2022-12-07T09:02:22;327.27;;;210.05;;
55328;SDS011;41205;44.264;19.884;2022-12-07T09:04:48;88.50;;;53.83;;
55328;SDS011;41205;44.264;19.884;2022-12-07T09:07:14;66.78;;;38.03;;
55328;SDS011;41205;44.264;19.884;2022-12-07T09:09:40;60.08;;;35.42;;
55328;SDS011;41205;44.264;19.884;2022-12-07T09:12:06;49.10;;;31.50;;
55328;SDS011;41205;44.264;19.884;2022-12-07T09:14:32;74.53;;;50.17;;
55328;SDS011;41205;44.264;19.884;2022-12-07T09:17:07;71.47;;;48.05;;
55328;SDS011;41205;44.264;19.884;2022-12-07T09:19:34;145.50;;;105.47;;
55328;SDS011;41205;44.264;19.884;2022-12-07T09:22:00;94.22;;;64.90;;
55328;SDS011;41205;44.264;19.884;2022-12-07T09:24:26;105.43;;;71.10;;
55328;SDS011;41205;44.264;19.884;2022-12-07T09:26:51;142.07;;;114.60;;
55328;SDS011;41205;44.264;19.884;2022-12-07T09:29:17;102.10;;;65.70;;
55328;SDS011;41205;44.264;19.884;2022-12-07T09:31:43;90.60;;;67.05;;
55328;SDS011;41205;44.264;19.884;2022-12-07T09:34:08;75.47;;;47.35;;
55328;SDS011;41205;44.264;19.884;2022-12-07T09:36:34;58.10;;;41.75;;
55328;SDS011;41205;44.264;19.884;2022-12-07T09:39:00;91.07;;;66.97;;
55328;SDS011;41205;44.264;19.884;2022-12-07T09:41:27;56.38;;;40.85;;
55328;SDS011;41205;44.264;19.884;2022-12-07T09:43:57;71.25;;;45.55;;
55328;SDS011;41205;44.264;19.884;2022-12-07T09:46:28;76.18;;;44.38;;
55328;SDS011;41205;44.264;19.884;2022-12-07T09:48:59;86.53;;;52.72;;
55328;SDS011;41205;44.264;19.884;2022-12-07T09:51:25;77.35;;;45.63;;
55328;SDS011;41205;44.264;19.884;2022-12-07T09:53:52;68.65;;;46.95;;
55328;SDS011;41205;44.264;19.884;2022-12-07T09:56:19;69.20;;;47.58;;
55328;SDS011;41205;44.264;19.884;2022-12-07T09:58:46;74.32;;;49.55;;
55328;SDS011;41205;44.264;19.884;2022-12-07T10:01:14;81.95;;;51.45;;
55328;SDS011;41205;44.264;19.884;2022-12-07T10:04:01;55.80;;;36.45;;
55328;SDS011;41205;44.264;19.884;2022-12-07T10:06:35;74.00;;;51.95;;
55328;SDS011;41205;44.264;19.884;2022-12-07T10:09:01;64.82;;;47.88;;
55328;SDS011;41205;44.264;19.884;2022-12-07T10:11:33;56.22;;;37.97;;
55328;SDS011;41205;44.264;19.884;2022-12-07T10:14:09;71.30;;;44.90;;
55328;SDS011;41205;44.264;19.884;2022-12-07T10:16:38;68.75;;;43.88;;
55328;SDS011;41205;44.264;19.884;2022-12-07T10:19:19;72.85;;;47.35;;
55328;SDS011;41205;44.264;19.884;2022-12-07T10:24:35;67.28;;;40.13;;
55328;SDS011;41205;44.264;19.884;2022-12-07T10:27:04;66.82;;;43.65;;
55328;SDS011;41205;44.264;19.884;2022-12-07T10:29:34;84.20;;;57.28;;
55328;SDS011;41205;44.264;19.884;2022-12-07T10:32:04;89.82;;;55.10;;
55328;SDS011;41205;44.264;19.884;2022-12-07T10:34:39;87.53;;;53.00;;
55328;SDS011;41205;44.264;19.884;2022-12-07T10:39:50;99.95;;;64.68;;
55328;SDS011;41205;44.264;19.884;2022-12-07T10:45:06;76.00;;;46.33;;
55328;SDS011;41205;44.264;19.884;2022-12-07T10:53:14;95.55;;;56.65;;
55328;SDS011;41205;44.264;19.884;2022-12-07T11:07:42;116.75;;;70.25;;
55328;SDS011;41205;44.264;19.884;2022-12-07T11:10:35;102.20;;;66.05;;
55328;SDS011;41205;44.264;19.884;2022-12-07T11:13:21;70.97;;;48.72;;
55328;SDS011;41205;44.264;19.884;2022-12-07T11:18:52;89.63;;;60.13;;
55328;SDS011;41205;44.264;19.884;2022-12-07T11:21:57;96.22;;;61.88;;
55328;SDS011;41205;44.264;19.884;2022-12-07T11:24:27;111.25;;;72.47;;
55328;SDS011;41205;44.264;19.884;2022-12-07T11:30:27;70.53;;;48.40;;
55328;SDS011;41205;44.264;19.884;2022-12-07T11:35:36;129.27;;;88.70;;
55328;SDS011;41205;44.264;19.884;2022-12-07T11:38:20;86.88;;;61.40;;
55328;SDS011;41205;44.264;19.884;2022-12-07T11:40:56;58.17;;;39.45;;
55328;SDS011;41205;44.264;19.884;2022-12-07T11:43:37;70.90;;;56.40;;
55328;SDS011;41205;44.264;19.884;2022-12-07T11:46:19;73.13;;;54.17;;
55328;SDS011;41205;44.264;19.884;2022-12-07T11:48:54;110.13;;;76.38;;
55328;SDS011;41205;44.264;19.884;2022-12-07T11:51:27;130.50;;;95.72;;
55328;SDS011;41205;44.264;19.884;2022-12-07T11:53:57;118.07;;;88.50;;
55328;SDS011;41205;44.264;19.884;2022-12-07T11:56:28;61.65;;;44.05;;
55328;SDS011;41205;44.264;19.884;2022-12-07T11:59:08;51.50;;;35.42;;
55328;SDS011;41205;44.264;19.884;2022-12-07T12:07:19;56.58;;;39.47;;
55328;SDS011;41205;44.264;19.884;2022-12-07T12:09:52;60.60;;;38.90;;
55328;SDS011;41205;44.264;19.884;2022-12-07T12:25:38;49.20;;;34.90;;
55328;SDS011;41205;44.264;19.884;2022-12-07T12:28:15;68.70;;;47.05;;
55328;SDS011;41205;44.264;19.884;2022-12-07T12:31:09;100.97;;;68.38;;
55328;SDS011;41205;44.264;19.884;2022-12-07T12:33:50;84.07;;;54.80;;
55328;SDS011;41205;44.264;19.884;2022-12-07T12:44:00;62.97;;;42.50;;
55328;SDS011;41205;44.264;19.884;2022-12-07T12:54:18;36.47;;;26.45;;
55328;SDS011;41205;44.264;19.884;2022-12-07T12:56:53;43.63;;;31.27;;
55328;SDS011;41205;44.264;19.884;2022-12-07T12:59:34;33.90;;;25.50;;
55328;SDS011;41205;44.264;19.884;2022-12-07T13:05:00;50.22;;;34.67;;
55328;SDS011;41205;44.264;19.884;2022-12-07T13:10:24;43.33;;;33.53;;
55328;SDS011;41205;44.264;19.884;2022-12-07T13:26:42;80.70;;;55.42;;
55328;SDS011;41205;44.264;19.884;2022-12-07T13:31:43;223.02;;;153.70;;
55328;SDS011;41205;44.264;19.884;2022-12-07T13:39:50;75.22;;;49.97;;
55328;SDS011;41205;44.264;19.884;2022-12-07T13:42:27;61.45;;;40.78;;
55328;SDS011;41205;44.264;19.884;2022-12-07T13:45:00;55.58;;;38.30;;
55328;SDS011;41205;44.264;19.884;2022-12-07T13:47:49;71.28;;;44.95;;
55328;SDS011;41205;44.264;19.884;2022-12-07T13:50:29;81.38;;;49.95;;
55328;SDS011;41205;44.264;19.884;2022-12-07T13:52:57;78.65;;;51.53;;
55328;SDS011;41205;44.264;19.884;2022-12-07T13:55:24;133.30;;;76.28;;
55328;SDS011;41205;44.264;19.884;2022-12-07T13:57:52;170.30;;;129.82;;
55328;SDS011;41205;44.264;19.884;2022-12-07T14:00:19;96.25;;;63.78;;
55328;SDS011;41205;44.264;19.884;2022-12-07T14:03:47;81.05;;;51.13;;
55328;SDS011;41205;44.264;19.884;2022-12-07T14:05:43;84.43;;;53.45;;
55328;SDS011;41205;44.264;19.884;2022-12-07T14:10:39;74.32;;;52.40;;
55328;SDS011;41205;44.264;19.884;2022-12-07T14:15:59;69.55;;;48.35;;
55328;SDS011;41205;44.264;19.884;2022-12-07T14:18:37;78.90;;;52.88;;
55328;SDS011;41205;44.264;19.884;2022-12-07T14:21:18;66.15;;;45.67;;
55328;SDS011;41205;44.264;19.884;2022-12-07T14:24:01;79.63;;;51.50;;
55328;SDS011;41205;44.264;19.884;2022-12-07T14:26:37;78.85;;;51.25;;
55328;SDS011;41205;44.264;19.884;2022-12-07T14:31:56;82.40;;;60.38;;
55328;SDS011;41205;44.264;19.884;2022-12-07T14:34:24;80.60;;;56.90;;
55328;SDS011;41205;44.264;19.884;2022-12-07T14:36:50;67.90;;;49.08;;
55328;SDS011;41205;44.264;19.884;2022-12-07T14:39:16;70.05;;;48.08;;
55328;SDS011;41205;44.264;19.884;2022-12-07T14:41:42;66.75;;;45.80;;
55328;SDS011;41205;44.264;19.884;2022-12-07T14:44:17;97.80;;;66.07;;
55328;SDS011;41205;44.264;19.884;2022-12-07T14:46:47;84.65;;;56.22;;
55328;SDS011;41205;44.264;19.884;2022-12-07T14:49:16;86.20;;;58.03;;
55328;SDS011;41205;44.264;19.884;2022-12-07T14:51:42;99.10;;;68.68;;
55328;SDS011;41205;44.264;19.884;2022-12-07T14:54:16;121.68;;;76.65;;
55328;SDS011;41205;44.264;19.884;2022-12-07T14:56:44;103.50;;;63.75;;
55328;SDS011;41205;44.264;19.884;2022-12-07T14:59:13;99.18;;;62.80;;
55328;SDS011;41205;44.264;19.884;2022-12-07T15:01:40;81.10;;;52.30;;
55328;SDS011;41205;44.264;19.884;2022-12-07T15:04:05;133.95;;;87.20;;
55328;SDS011;41205;44.264;19.884;2022-12-07T15:06:31;119.32;;;75.38;;
55328;SDS011;41205;44.264;19.884;2022-12-07T15:08:57;97.32;;;64.68;;
55328;SDS011;41205;44.264;19.884;2022-12-07T15:11:23;131.40;;;82.63;;
55328;SDS011;41205;44.264;19.884;2022-12-07T15:13:48;108.72;;;69.45;;
55328;SDS011;41205;44.264;19.884;2022-12-07T15:16:33;136.15;;;95.75;;
55328;SDS011;41205;44.264;19.884;2022-12-07T15:18:59;98.55;;;65.32;;
55328;SDS011;41205;44.264;19.884;2022-12-07T15:21:25;93.78;;;61.40;;
55328;SDS011;41205;44.264;19.884;2022-12-07T15:23:50;101.88;;;64.75;;
55328;SDS011;41205;44.264;19.884;2022-12-07T15:26:16;92.65;;;61.67;;
55328;SDS011;41205;44.264;19.884;2022-12-07T15:28:42;96.38;;;67.07;;
55328;SDS011;41205;44.264;19.884;2022-12-07T15:31:14;87.50;;;59.42;;
55328;SDS011;41205;44.264;19.884;2022-12-07T15:33:42;102.32;;;73.70;;
55328;SDS011;41205;44.264;19.884;2022-12-07T15:36:09;154.95;;;99.95;;
55328;SDS011;41205;44.264;19.884;2022-12-07T15:38:46;156.50;;;99.53;;
55328;SDS011;41205;44.264;19.884;2022-12-07T15:41:12;138.07;;;93.40;;
55328;SDS011;41205;44.264;19.884;2022-12-07T15:43:38;142.50;;;97.10;;
55328;SDS011;41205;44.264;19.884;2022-12-07T15:46:22;166.27;;;106.40;;
55328;SDS011;41205;44.264;19.884;2022-12-07T15:48:47;140.98;;;105.43;;
55328;SDS011;41205;44.264;19.884;2022-12-07T15:51:14;117.35;;;84.30;;
55328;SDS011;41205;44.264;19.884;2022-12-07T15:53:40;115.63;;;72.93;;
55328;SDS011;41205;44.264;19.884;2022-12-07T15:56:06;128.52;;;83.30;;
55328;SDS011;41205;44.264;19.884;2022-12-07T15:58:33;127.50;;;86.07;;
55328;SDS011;41205;44.264;19.884;2022-12-07T16:00:59;131.70;;;82.85;;
55328;SDS011;41205;44.264;19.884;2022-12-07T16:03:35;140.15;;;89.53;;
55328;SDS011;41205;44.264;19.884;2022-12-07T16:06:01;124.35;;;89.20;;
55328;SDS011;41205;44.264;19.884;2022-12-07T16:08:27;97.10;;;63.92;;
55328;SDS011;41205;44.264;19.884;2022-12-07T16:10:54;87.32;;;61.42;;
55328;SDS011;41205;44.264;19.884;2022-12-07T16:13:20;116.30;;;75.93;;
55328;SDS011;41205;44.264;19.884;2022-12-07T16:15:46;97.95;;;72.15;;
55328;SDS011;41205;44.264;19.884;2022-12-07T16:18:12;113.72;;;78.18;;
55328;SDS011;41205;44.264;19.884;2022-12-07T16:20:38;102.25;;;66.03;;
55328;SDS011;41205;44.264;19.884;2022-12-07T16:23:04;100.07;;;72.95;;
55328;SDS011;41205;44.264;19.884;2022-12-07T16:25:30;108.40;;;76.30;;
55328;SDS011;41205;44.264;19.884;2022-12-07T16:27:56;135.38;;;86.40;;